createdAt,value
2022-12-28T00:01:44.977Z,2.50
2022-12-28T00:04:17.866Z,2.60
2022-12-28T00:06:45.459Z,2.60
2022-12-28T00:09:13.144Z,2.60
2022-12-28T00:11:40.612Z,2.60
2022-12-28T00:14:07.704Z,2.50
2022-12-28T00:16:38.202Z,2.60
2022-12-28T00:19:11.624Z,2.60
2022-12-28T00:21:39.037Z,2.80
2022-12-28T00:24:07.676Z,2.70
2022-12-28T00:26:35.752Z,2.70
2022-12-28T00:29:05.280Z,2.70
2022-12-28T00:31:34.168Z,2.70
2022-12-28T00:34:02.549Z,2.80
2022-12-28T00:37:09.011Z,2.80
2022-12-28T00:39:16.672Z,2.80
2022-12-28T00:41:43.683Z,2.80
2022-12-28T00:44:10.865Z,2.80
2022-12-28T00:46:37.892Z,2.80
2022-12-28T00:49:04.973Z,2.90
2022-12-28T00:51:31.814Z,2.90
2022-12-28T00:53:58.643Z,2.90
2022-12-28T00:56:25.495Z,2.90
2022-12-28T00:58:58.133Z,3.00
2022-12-28T01:01:26.381Z,3.00
2022-12-28T01:03:56.901Z,3.00
2022-12-28T01:06:24.082Z,3.10
2022-12-28T01:08:51.274Z,3.10
2022-12-28T01:11:25.824Z,3.20
2022-12-28T01:13:55.117Z,3.30
2022-12-28T01:16:24.885Z,3.30
2022-12-28T01:18:55.225Z,3.40
2022-12-28T01:21:25.309Z,3.40
2022-12-28T01:24:00.124Z,3.50
2022-12-28T01:26:29.230Z,3.50
2022-12-28T01:28:58.030Z,3.50
2022-12-28T01:31:25.017Z,3.50
2022-12-28T01:33:52.134Z,3.60
2022-12-28T01:36:24.033Z,3.60
2022-12-28T01:39:00.115Z,3.60
2022-12-28T01:41:31.646Z,3.60
2022-12-28T01:43:58.787Z,3.60
2022-12-28T01:46:37.360Z,3.60
2022-12-28T01:49:11.190Z,3.60
2022-12-28T01:52:08.551Z,3.60
2022-12-28T01:54:52.040Z,3.60
2022-12-28T01:57:24.705Z,3.60
2022-12-28T02:00:01.766Z,3.60
2022-12-28T02:02:30.795Z,3.70
2022-12-28T02:05:00.232Z,3.70
2022-12-28T02:07:46.532Z,3.70
2022-12-28T02:10:42.902Z,3.80
2022-12-28T02:13:04.513Z,3.80
2022-12-28T02:15:31.295Z,3.80
2022-12-28T02:17:59.282Z,3.80
2022-12-28T02:20:48.858Z,3.80
2022-12-28T02:24:35.958Z,3.90
2022-12-28T02:27:43.176Z,3.90
2022-12-28T02:30:13.084Z,3.90
2022-12-28T02:33:06.958Z,4.00
2022-12-28T02:35:52.938Z,4.00
2022-12-28T02:38:27.874Z,4.00
2022-12-28T02:41:09.497Z,4.10
2022-12-28T02:43:36.851Z,4.10
2022-12-28T02:46:44.805Z,4.10
2022-12-28T02:49:46.024Z,4.10
2022-12-28T02:52:40.588Z,4.10
2022-12-28T02:55:31.982Z,4.20
2022-12-28T02:58:29.603Z,4.20
2022-12-28T03:01:49.742Z,4.20
2022-12-28T03:04:45.258Z,4.20
2022-12-28T03:07:55.226Z,4.20
2022-12-28T03:10:54.449Z,4.30
2022-12-28T03:13:43.173Z,4.30
2022-12-28T03:16:58.187Z,4.30
2022-12-28T03:19:54.387Z,4.40
2022-12-28T03:22:43.262Z,4.40
2022-12-28T03:25:35.273Z,4.40
2022-12-28T03:28:26.181Z,4.40
2022-12-28T03:31:06.738Z,4.50
2022-12-28T03:33:46.212Z,4.50
2022-12-28T03:36:19.916Z,4.50
2022-12-28T03:39:30.307Z,4.50
2022-12-28T03:42:34.914Z,4.60
2022-12-28T03:45:45.101Z,4.60
2022-12-28T03:48:15.925Z,4.60
2022-12-28T03:50:48.170Z,4.60
2022-12-28T03:53:19.124Z,4.60
2022-12-28T03:55:45.966Z,4.70
2022-12-28T03:58:12.896Z,4.70
2022-12-28T04:00:39.661Z,4.70
2022-12-28T04:03:06.688Z,4.70
2022-12-28T04:05:34.018Z,4.70
2022-12-28T04:08:00.906Z,4.70
2022-12-28T04:10:27.761Z,4.70
2022-12-28T04:12:56.828Z,4.70
2022-12-28T04:15:23.947Z,4.70
2022-12-28T04:17:50.793Z,4.70
2022-12-28T04:20:17.623Z,4.70
2022-12-28T04:22:44.983Z,4.70
2022-12-28T04:25:11.833Z,4.70
2022-12-28T04:27:38.611Z,4.80
2022-12-28T04:30:06.527Z,4.80
2022-12-28T04:32:33.338Z,4.80
2022-12-28T04:35:00.100Z,4.80
2022-12-28T04:37:26.917Z,4.80
2022-12-28T04:39:56.068Z,4.90
2022-12-28T04:42:25.841Z,4.80
2022-12-28T04:44:52.778Z,4.80
2022-12-28T04:47:19.625Z,4.80
2022-12-28T04:49:46.563Z,4.90
2022-12-28T04:52:13.714Z,4.90
2022-12-28T04:54:40.549Z,4.90
2022-12-28T04:57:07.393Z,4.90
2022-12-28T04:59:34.385Z,4.90
2022-12-28T05:02:01.501Z,4.90
2022-12-28T05:04:28.444Z,5.00
2022-12-28T05:06:55.227Z,5.00
2022-12-28T05:09:22.129Z,5.00
2022-12-28T05:11:49.540Z,5.00
2022-12-28T05:14:16.333Z,5.00
2022-12-28T05:16:43.141Z,5.00
2022-12-28T05:19:09.945Z,5.00
2022-12-28T05:21:36.764Z,5.00
2022-12-28T05:24:03.857Z,5.00
2022-12-28T05:26:30.755Z,5.00
2022-12-28T05:28:58.812Z,5.10
2022-12-28T05:31:26.519Z,5.10
2022-12-28T05:33:54.660Z,5.10
2022-12-28T05:36:26.260Z,5.10
2022-12-28T05:38:54.690Z,5.10
2022-12-28T05:41:28.636Z,5.30
2022-12-28T05:43:58.407Z,5.10
2022-12-28T05:46:29.758Z,5.10
2022-12-28T05:48:57.282Z,5.20
2022-12-28T05:51:28.117Z,5.20
2022-12-28T05:53:56.015Z,5.20
2022-12-28T05:56:26.401Z,5.20
2022-12-28T05:59:02.286Z,5.20
2022-12-28T06:01:37.381Z,5.20
2022-12-28T06:04:08.055Z,5.20
2022-12-28T06:06:36.171Z,5.20
2022-12-28T06:09:04.226Z,5.30
2022-12-28T06:11:31.729Z,5.30
2022-12-28T06:13:59.730Z,5.30
2022-12-28T06:16:33.084Z,5.30
2022-12-28T06:19:03.468Z,5.30
2022-12-28T06:21:34.090Z,5.30
2022-12-28T06:24:02.375Z,5.30
2022-12-28T06:26:33.675Z,5.40
2022-12-28T06:29:02.045Z,5.40
2022-12-28T06:31:36.115Z,5.40
2022-12-28T06:34:05.345Z,5.40
2022-12-28T06:36:43.408Z,5.40
2022-12-28T06:39:13.713Z,5.40
2022-12-28T06:41:41.602Z,5.40
2022-12-28T06:44:13.760Z,5.50
2022-12-28T06:46:41.659Z,5.50
2022-12-28T06:49:08.479Z,5.50
2022-12-28T06:51:40.445Z,5.50
2022-12-28T06:54:09.197Z,5.50
2022-12-28T06:56:36.348Z,5.50
2022-12-28T06:59:04.417Z,5.50
2022-12-28T07:01:38.701Z,5.50
2022-12-28T07:04:08.737Z,5.50
2022-12-28T07:06:42.425Z,5.50
2022-12-28T07:09:13.566Z,5.50
2022-12-28T07:11:41.041Z,5.50
2022-12-28T07:14:08.146Z,5.60
2022-12-28T07:19:01.113Z,5.60
2022-12-28T07:21:37.149Z,5.60
2022-12-28T07:24:05.985Z,5.60
2022-12-28T07:26:35.867Z,5.60
2022-12-28T07:29:06.732Z,5.60
2022-12-28T07:31:44.739Z,5.60
2022-12-28T07:34:16.077Z,5.60
2022-12-28T07:36:43.765Z,5.60
2022-12-28T07:39:10.707Z,5.60
2022-12-28T07:41:37.592Z,5.70
2022-12-28T07:44:04.628Z,5.70
2022-12-28T07:46:35.617Z,5.70
2022-12-28T07:49:02.909Z,5.70
2022-12-28T07:51:36.056Z,5.70
2022-12-28T07:54:04.389Z,5.70
2022-12-28T07:59:03.100Z,5.80
2022-12-28T08:01:33.729Z,5.80
2022-12-28T08:04:04.377Z,5.80
2022-12-28T08:06:36.201Z,5.80
2022-12-28T08:09:04.761Z,5.80
2022-12-28T08:11:35.169Z,5.80
2022-12-28T08:14:03.743Z,5.80
2022-12-28T08:16:34.604Z,5.80
2022-12-28T08:19:02.456Z,5.80
2022-12-28T08:21:42.010Z,5.90
2022-12-28T08:24:13.461Z,5.90
2022-12-28T08:26:41.447Z,5.90
2022-12-28T08:29:14.692Z,5.90
2022-12-28T08:31:44.602Z,6.00
2022-12-28T08:34:19.323Z,5.90
2022-12-28T08:36:46.687Z,6.00
2022-12-28T08:39:14.541Z,6.00
2022-12-28T08:41:41.680Z,6.00
2022-12-28T08:44:08.569Z,6.00
2022-12-28T08:46:36.537Z,6.00
2022-12-28T08:49:05.745Z,6.00
2022-12-28T08:51:42.391Z,6.00
2022-12-28T08:54:12.434Z,6.10
2022-12-28T08:56:42.405Z,6.10
2022-12-28T08:59:10.904Z,6.10
2022-12-28T09:01:44.143Z,6.20
2022-12-28T09:04:22.106Z,6.10
2022-12-28T09:06:50.850Z,6.20
2022-12-28T09:09:19.984Z,6.20
2022-12-28T09:11:49.267Z,6.20
2022-12-28T09:14:23.346Z,6.20
2022-12-28T09:16:54.846Z,6.20
2022-12-28T09:19:22.826Z,6.30
2022-12-28T09:21:52.920Z,6.30
2022-12-28T09:24:19.994Z,6.30
2022-12-28T09:26:47.089Z,6.40
2022-12-28T09:29:14.790Z,6.30
2022-12-28T09:31:43.946Z,6.40
2022-12-28T09:37:00.994Z,6.40
2022-12-28T09:39:28.714Z,6.40
2022-12-28T09:42:10.605Z,6.40
2022-12-28T09:45:08.792Z,6.50
2022-12-28T09:47:51.809Z,6.50
2022-12-28T09:50:18.744Z,6.50
2022-12-28T09:53:06.916Z,6.50
2022-12-28T09:55:41.514Z,6.50
2022-12-28T09:58:16.897Z,6.60
2022-12-28T10:00:52.037Z,6.60
2022-12-28T10:03:27.251Z,6.60
2022-12-28T10:05:57.721Z,6.60
2022-12-28T10:08:26.281Z,6.60
2022-12-28T10:10:56.439Z,6.70
2022-12-28T10:16:21.822Z,6.70
2022-12-28T10:18:49.947Z,6.70
2022-12-28T10:21:21.666Z,6.70
2022-12-28T10:24:29.854Z,6.70
2022-12-28T10:26:45.917Z,6.70
2022-12-28T10:29:21.215Z,6.70
2022-12-28T10:32:03.472Z,6.70
2022-12-28T10:34:35.102Z,6.80
2022-12-28T10:37:17.519Z,6.80
2022-12-28T10:39:53.227Z,6.90
2022-12-28T10:42:35.923Z,6.90
2022-12-28T10:45:07.844Z,7.00
2022-12-28T10:47:43.045Z,7.00
2022-12-28T10:50:47.946Z,7.00
2022-12-28T10:53:42.076Z,7.00
2022-12-28T10:56:14.713Z,7.00
2022-12-28T10:58:44.957Z,7.00
2022-12-28T11:01:14.899Z,7.00
2022-12-28T11:04:00.357Z,7.00
2022-12-28T11:06:50.374Z,7.10
2022-12-28T11:09:35.271Z,7.10
2022-12-28T11:12:26.632Z,7.10
2022-12-28T11:14:54.315Z,7.10
2022-12-28T11:17:29.273Z,7.10
2022-12-28T11:20:21.051Z,7.10
2022-12-28T11:22:48.431Z,7.10
2022-12-28T11:25:18.486Z,7.10
2022-12-28T11:27:48.081Z,7.20
2022-12-28T11:30:20.258Z,7.30
2022-12-28T11:33:01.344Z,7.40
2022-12-28T11:35:38.666Z,7.50
2022-12-28T11:38:07.408Z,7.60
2022-12-28T11:40:49.261Z,7.70
2022-12-28T11:43:32.007Z,7.80
2022-12-28T11:46:01.991Z,7.80
2022-12-28T11:48:44.041Z,7.70
2022-12-28T11:51:22.516Z,7.70
2022-12-28T11:53:49.205Z,7.70
2022-12-28T11:56:21.769Z,7.70
2022-12-28T11:59:04.941Z,7.80
2022-12-28T12:01:37.089Z,7.70
2022-12-28T12:04:03.940Z,7.70
2022-12-28T12:06:47.116Z,7.70
2022-12-28T12:09:25.903Z,7.70
2022-12-28T12:11:54.520Z,7.70
2022-12-28T12:14:35.913Z,7.80
2022-12-28T12:17:13.057Z,7.80
2022-12-28T12:19:48.297Z,7.80
2022-12-28T12:22:21.530Z,7.70
2022-12-28T12:25:15.793Z,7.70
2022-12-28T12:27:55.283Z,7.60
2022-12-28T12:30:23.671Z,7.60
2022-12-28T12:33:03.598Z,7.50
2022-12-28T12:36:08.325Z,7.50
2022-12-28T12:39:05.692Z,7.40
2022-12-28T12:41:54.641Z,7.30
2022-12-28T12:44:59.479Z,7.30
2022-12-28T12:48:19.257Z,7.20
2022-12-28T12:51:25.579Z,7.20
2022-12-28T12:54:07.645Z,7.20
2022-12-28T12:56:49.488Z,7.20
2022-12-28T12:59:59.192Z,7.10
2022-12-28T13:02:47.798Z,7.20
2022-12-28T13:05:23.649Z,7.20
2022-12-28T13:07:53.063Z,7.20
2022-12-28T13:10:34.913Z,7.20
2022-12-28T13:13:05.506Z,7.20
2022-12-28T13:15:32.899Z,7.20
2022-12-28T13:18:44.038Z,7.20
2022-12-28T13:21:12.257Z,7.20
2022-12-28T13:23:45.531Z,7.40
2022-12-28T13:26:15.419Z,7.20
2022-12-28T13:28:56.930Z,7.20
2022-12-28T13:31:38.807Z,7.30
2022-12-28T13:34:25.161Z,7.30
2022-12-28T13:36:58.582Z,7.30
2022-12-28T13:39:39.972Z,7.30
2022-12-28T13:42:41.951Z,7.40
2022-12-28T13:45:16.645Z,7.20
2022-12-28T13:47:50.910Z,7.20
2022-12-28T13:50:24.323Z,7.20
2022-12-28T13:53:02.698Z,7.20
2022-12-28T13:55:34.750Z,7.20
2022-12-28T13:58:09.558Z,7.10
2022-12-28T14:00:38.816Z,7.00
2022-12-28T14:03:10.468Z,7.00
2022-12-28T14:05:41.570Z,7.00
2022-12-28T14:08:08.469Z,6.90
2022-12-28T14:10:36.223Z,7.00
2022-12-28T14:13:04.924Z,6.90
2022-12-28T14:15:40.583Z,6.90
2022-12-28T14:18:09.753Z,6.80
2022-12-28T14:20:54.575Z,6.90
2022-12-28T14:23:29.043Z,6.80
2022-12-28T14:26:01.143Z,6.80
2022-12-28T14:28:39.298Z,6.80
2022-12-28T14:31:09.119Z,6.70
2022-12-28T14:33:57.810Z,6.70
2022-12-28T14:36:48.425Z,6.70
2022-12-28T14:39:40.185Z,6.60
2022-12-28T14:42:20.824Z,6.60
2022-12-28T14:44:52.492Z,6.60
2022-12-28T14:47:46.877Z,6.50
2022-12-28T14:50:24.920Z,6.50
2022-12-28T14:53:13.656Z,6.50
2022-12-28T14:56:05.317Z,6.50
2022-12-28T14:59:02.114Z,6.50
2022-12-28T15:01:49.390Z,6.50
2022-12-28T15:04:40.354Z,6.40
2022-12-28T15:07:10.155Z,6.40
2022-12-28T15:09:37.223Z,6.40
2022-12-28T15:12:16.045Z,6.40
2022-12-28T15:14:44.845Z,6.30
2022-12-28T15:17:12.224Z,6.30
2022-12-28T15:19:39.278Z,6.20
2022-12-28T15:22:06.275Z,6.20
2022-12-28T15:24:34.645Z,6.20
2022-12-28T15:27:03.155Z,6.10
2022-12-28T15:32:16.931Z,6.00
2022-12-28T15:34:43.869Z,6.00
2022-12-28T15:37:10.653Z,6.00
2022-12-28T15:39:37.631Z,6.10
2022-12-28T15:42:04.611Z,6.00
2022-12-28T15:44:31.398Z,6.10
2022-12-28T15:46:58.239Z,6.10
2022-12-28T15:49:25.139Z,6.20
2022-12-28T15:51:51.994Z,6.10
2022-12-28T15:54:19.503Z,6.20
2022-12-28T15:56:55.696Z,6.30
2022-12-28T15:59:22.560Z,6.30
2022-12-28T16:01:49.723Z,6.40
2022-12-28T16:04:17.769Z,6.40
2022-12-28T16:06:45.429Z,6.40
2022-12-28T16:09:14.029Z,6.40
2022-12-28T16:11:41.705Z,6.40
2022-12-28T16:14:16.725Z,6.40
2022-12-28T16:16:44.832Z,6.40
2022-12-28T16:19:14.656Z,6.40
2022-12-28T16:21:43.381Z,6.40
2022-12-28T16:24:11.109Z,6.40
2022-12-28T16:26:38.273Z,6.40
2022-12-28T16:29:05.095Z,6.50
2022-12-28T16:31:38.358Z,6.60
2022-12-28T16:34:14.927Z,6.60
2022-12-28T16:36:44.672Z,6.60
2022-12-28T16:39:15.200Z,6.60
2022-12-28T16:41:42.191Z,6.60
2022-12-28T16:44:19.138Z,6.60
2022-12-28T16:46:46.651Z,6.70
2022-12-28T16:49:13.820Z,6.70
2022-12-28T16:51:43.869Z,6.70
2022-12-28T16:54:18.159Z,6.70
2022-12-28T16:56:46.780Z,6.60
2022-12-28T16:59:26.804Z,6.60
2022-12-28T17:09:52.980Z,6.70
2022-12-28T17:12:20.857Z,6.60
2022-12-28T17:14:47.663Z,6.70
2022-12-28T17:17:14.421Z,6.60
2022-12-28T17:19:41.164Z,6.60
2022-12-28T17:22:08.043Z,6.60
2022-12-28T17:24:34.816Z,6.60
2022-12-28T17:27:07.668Z,6.60
2022-12-28T17:29:38.232Z,6.60
2022-12-28T17:32:07.322Z,6.60
2022-12-28T17:34:34.697Z,6.60
2022-12-28T17:37:01.586Z,6.70
2022-12-28T17:39:28.470Z,6.80
2022-12-28T17:41:55.328Z,6.70
2022-12-28T17:44:22.244Z,6.70
2022-12-28T17:46:49.411Z,6.70
2022-12-28T17:49:16.537Z,6.70
2022-12-28T17:51:44.384Z,6.70
2022-12-28T17:54:14.870Z,6.70
2022-12-28T17:56:43.049Z,6.70
2022-12-28T17:59:16.105Z,6.80
2022-12-28T18:01:43.672Z,6.80
2022-12-28T18:04:12.013Z,6.80
2022-12-28T18:06:39.294Z,6.80
2022-12-28T18:09:06.112Z,6.80
2022-12-28T18:11:32.980Z,6.90
2022-12-28T18:13:59.741Z,6.80
2022-12-28T18:16:27.898Z,6.90
2022-12-28T18:18:54.877Z,6.90
2022-12-28T18:21:23.139Z,6.90
2022-12-28T18:23:52.513Z,7.00
2022-12-28T18:26:23.734Z,6.80
2022-12-28T18:28:58.369Z,6.90
2022-12-28T18:31:25.886Z,6.80
2022-12-28T18:33:53.384Z,6.80
2022-12-28T18:36:20.259Z,6.90
2022-12-28T18:38:49.878Z,6.80
2022-12-28T18:41:20.760Z,6.80
2022-12-28T18:43:48.690Z,6.80
2022-12-28T18:46:15.818Z,6.80
2022-12-28T18:48:42.777Z,6.80
2022-12-28T18:51:17.315Z,6.80
2022-12-28T18:53:45.263Z,6.80
2022-12-28T18:56:19.166Z,6.80
2022-12-28T18:58:52.487Z,6.80
2022-12-28T19:04:16.639Z,6.80
2022-12-28T19:06:44.506Z,6.80
2022-12-28T19:09:12.137Z,6.80
2022-12-28T19:11:40.297Z,6.80
2022-12-28T19:14:10.541Z,6.80
2022-12-28T19:16:37.366Z,6.80
2022-12-28T19:19:04.214Z,6.80
2022-12-28T19:21:36.178Z,6.80
2022-12-28T19:24:12.790Z,6.80
2022-12-28T19:26:39.611Z,6.80
2022-12-28T19:29:07.654Z,6.80
2022-12-28T19:31:34.809Z,6.80
2022-12-28T19:34:01.749Z,6.90
2022-12-28T19:36:28.892Z,6.90
2022-12-28T19:38:57.062Z,6.90
2022-12-28T19:41:24.491Z,6.90
2022-12-28T19:43:51.574Z,6.90
2022-12-28T19:46:30.567Z,6.90
2022-12-28T19:48:59.407Z,6.90
2022-12-28T19:51:30.585Z,6.90
2022-12-28T19:53:58.843Z,6.90
2022-12-28T19:56:25.649Z,6.90
2022-12-28T19:58:57.831Z,6.90
2022-12-28T20:01:31.358Z,6.90
2022-12-28T20:03:59.855Z,6.90
2022-12-28T20:06:29.246Z,6.90
2022-12-28T20:08:59.539Z,7.00
2022-12-28T20:11:28.995Z,7.00
2022-12-28T20:14:05.570Z,7.00
2022-12-28T20:16:34.850Z,7.00
2022-12-28T20:19:06.276Z,7.00
2022-12-28T20:21:34.022Z,7.00
2022-12-28T20:24:01.654Z,7.00
2022-12-28T20:26:29.862Z,7.10
2022-12-28T20:28:59.074Z,7.00
2022-12-28T20:31:26.957Z,7.00
2022-12-28T20:33:54.192Z,7.00
2022-12-28T20:36:27.394Z,7.00
2022-12-28T20:38:55.612Z,7.00
2022-12-28T20:41:47.192Z,7.00
2022-12-28T20:44:21.552Z,7.00
2022-12-28T20:46:48.420Z,7.00
2022-12-28T20:49:15.206Z,7.00
2022-12-28T20:51:42.937Z,7.00
2022-12-28T20:54:10.771Z,7.00
2022-12-28T20:56:38.604Z,7.00
2022-12-28T20:59:06.105Z,7.00
2022-12-28T21:01:35.558Z,7.00
2022-12-28T21:04:02.947Z,7.10
2022-12-28T21:06:29.981Z,7.10
2022-12-28T21:08:56.872Z,7.00
2022-12-28T21:11:24.508Z,7.00
2022-12-28T21:13:51.468Z,7.00
2022-12-28T21:16:18.745Z,7.10
2022-12-28T21:18:45.709Z,7.10
2022-12-28T21:21:19.171Z,7.10
2022-12-28T21:23:46.200Z,7.10
2022-12-28T21:26:17.646Z,7.10
2022-12-28T21:28:48.176Z,7.10
2022-12-28T21:31:15.357Z,7.10
2022-12-28T21:33:42.508Z,7.10
2022-12-28T21:36:19.187Z,7.20
2022-12-28T21:38:48.669Z,7.20
2022-12-28T21:41:41.667Z,7.20
2022-12-28T21:44:13.194Z,7.30
2022-12-28T21:46:41.812Z,7.30
2022-12-28T21:49:09.403Z,7.30
2022-12-28T21:51:38.289Z,7.30
2022-12-28T21:54:15.392Z,7.40
2022-12-28T21:56:45.058Z,7.30
2022-12-28T21:59:13.502Z,7.30
2022-12-28T22:02:00.807Z,7.40
2022-12-28T22:04:47.178Z,7.40
2022-12-28T22:07:17.579Z,7.50
2022-12-28T22:10:03.331Z,7.40
2022-12-28T22:12:36.797Z,7.40
2022-12-28T22:15:36.111Z,7.40
2022-12-28T22:21:12.566Z,7.40
2022-12-28T22:23:39.436Z,7.50
2022-12-28T22:26:06.416Z,7.70
2022-12-28T22:28:33.484Z,7.50
2022-12-28T22:31:08.689Z,7.60
2022-12-28T22:33:35.749Z,7.60
2022-12-28T22:36:14.931Z,7.60
2022-12-28T22:38:41.817Z,7.60
2022-12-28T22:41:09.623Z,7.60
2022-12-28T22:43:36.619Z,7.60
2022-12-28T22:46:11.610Z,7.60
2022-12-28T22:48:38.707Z,7.60
2022-12-28T22:51:09.592Z,7.70
2022-12-28T22:53:37.112Z,7.70
2022-12-28T22:56:09.337Z,7.70
2022-12-28T22:58:36.999Z,7.70
2022-12-28T23:01:06.916Z,7.70
2022-12-28T23:03:34.949Z,7.70
2022-12-28T23:06:01.765Z,7.80
2022-12-28T23:08:28.574Z,7.80
2022-12-28T23:10:59.345Z,7.80
2022-12-28T23:13:28.489Z,7.80
2022-12-28T23:16:00.480Z,7.80
2022-12-28T23:18:47.680Z,7.90
2022-12-28T23:21:42.803Z,7.90
2022-12-28T23:24:31.554Z,7.90
2022-12-28T23:27:18.404Z,7.90
2022-12-28T23:29:46.230Z,7.90
2022-12-28T23:32:14.063Z,8.00
2022-12-28T23:34:40.821Z,8.00
2022-12-28T23:37:07.708Z,8.00
2022-12-28T23:39:34.513Z,8.00
2022-12-28T23:42:01.282Z,8.00
2022-12-28T23:44:28.135Z,8.00
2022-12-28T23:46:58.924Z,8.00
2022-12-28T23:49:26.873Z,8.10
2022-12-28T23:51:53.796Z,8.10
2022-12-28T23:54:20.712Z,8.10
2022-12-28T23:56:48.800Z,8.10
2022-12-28T23:59:15.886Z,8.10
